• Join FlightAware (Why Join?)
  • Login
  • US Flag 
04:47PM EDT


 

Airport Tracker/Info


-or-


 

Live Flight TrackerFlight Track Log ✈ ANA1186 ✈ 22-Feb-2014 ✈ RCSS / TSA - RJTT / HND

Flight Track Log - Related Links

Times and Time Zones

All times are in EST time to prevent confusion due to time zone crossing. See the ANA1186 flight status page for this flight to view local times or setup timezone preferences in your user account.

Time Position Orientation Groundspeed Altitude Reporting Facility
EST Latitude Longitude Course Direction KTS MPH feet Rate Location/Type
12:37AM 25.7704 122.5507 52° Northeast  Level Estimated
12:38AM 25.8576 122.6764 52° Northeast  Level Estimated
12:39AM 25.9446 122.8023 52° Northeast  Level Estimated
12:40AM 26.0316 122.9283 52° Northeast  Level Estimated
12:41AM 26.1184 123.0546 53° Northeast  Level Estimated
12:42AM 26.2051 123.1811 53° Northeast  Level Estimated
12:43AM 26.2917 123.3077 53° Northeast  Level Estimated
12:44AM 26.3782 123.4345 53° Northeast  Level Estimated
12:45AM 26.4646 123.5615 53° Northeast  Level Estimated
12:46AM 26.5508 123.6887 53° Northeast  Level Estimated
12:47AM 26.6370 123.8161 53° Northeast  Level Estimated
12:48AM 26.7230 123.9437 53° Northeast  Level Estimated
12:49AM 26.8089 124.0715 53° Northeast  Level Estimated
12:50AM 26.8947 124.1994 53° Northeast  Level Estimated
12:51AM 26.9804 124.3276 53° Northeast  Level Estimated
12:52AM 27.0660 124.4560 53° Northeast  Level Estimated
12:53AM 27.1514 124.5845 53° Northeast  Level Estimated
12:54AM 27.2368 124.7133 53° Northeast  Level Estimated
12:55AM 27.3220 124.8422 53° Northeast  Level Estimated
12:56AM 27.4071 124.9714 53° Northeast  Level Estimated
12:57AM 27.4921 125.1008 53° Northeast  Level Estimated
12:58AM 27.5770 125.2303 54° Northeast  Level Estimated
12:59AM 27.6617 125.3600 54° Northeast  Level Estimated
01:00AM 27.7463 125.4900 54° Northeast  Level Estimated
01:01AM 27.8308 125.6201 54° Northeast  Level Estimated
01:02AM 27.9152 125.7505 54° Northeast  Level Estimated
01:03AM 27.9995 125.8811 54° Northeast  Level Estimated
01:04AM 28.0836 126.0118 54° Northeast  Level Estimated
01:05AM 28.1676 126.1428 54° Northeast  Level Estimated
01:06AM 28.2515 126.2740 54° Northeast  Level Estimated
01:07AM 28.3353 126.4054 54° Northeast  Level Estimated
01:08AM 28.4189 126.5369 54° Northeast  Level Estimated
01:09AM 28.5024 126.6687 54° Northeast  Level Estimated
01:10AM 28.5858 126.8008 54° Northeast  Level Estimated
01:11AM 28.6690 126.9330 54° Northeast  Level Estimated
01:12AM 28.7521 127.0654 54° Northeast  Level Estimated
01:13AM 28.8351 127.1980 54° Northeast  Level Estimated
01:14AM 28.9180 127.3309 55° Northeast  Level Estimated
01:15AM 29.0007 127.4639 55° Northeast  Level Estimated
01:16AM 29.0833 127.5972 55° Northeast  Level Estimated
01:17AM 29.1658 127.7307 55° Northeast  Level Estimated
01:18AM 29.2481 127.8644 55° Northeast  Level Estimated
01:19AM 29.3303 127.9983 55° Northeast  Level Estimated
01:20AM 29.4124 128.1324 55° Northeast  Level Estimated
01:21AM 29.4944 128.2668 55° Northeast  Level Estimated
01:22AM 29.5762 128.4014 55° Northeast  Level Estimated
01:23AM 29.6578 128.5361 55° Northeast  Level Estimated
01:24AM 29.7393 128.6711 55° Northeast  Level Estimated
01:25AM 29.8207 128.8064 55° Northeast  Level Estimated
01:26AM 29.9020 128.9418 55° Northeast  Level Estimated
01:27AM 29.9831 129.0775 55° Northeast  Level Estimated
01:28AM 30.0641 129.2133 55° Northeast  Level Estimated
01:29AM 30.1449 129.3495 55° Northeast  Level Estimated
01:30AM 30.2256 129.4858 56° Northeast  Level Estimated
01:31AM 30.3062 129.6223 56° Northeast  Level Estimated
01:32AM 30.3866 129.7591 56° Northeast  Level Estimated
01:33AM 30.4668 129.8961 56° Northeast  Level Estimated
01:34AM 30.5470 130.0334 56° Northeast  Level Estimated
01:35AM 30.6269 130.1708 56° Northeast  Level Estimated
01:36AM 30.7068 130.3085 56° Northeast  Level Estimated
01:37AM 30.7865 130.4464 56° Northeast  Level Estimated
01:38AM 30.8660 130.5845 56° Northeast  Level Estimated
01:39AM 30.9454 130.7229 56° Northeast  Level Estimated
01:40AM 31.0247 130.8615 56° Northeast  Level Estimated
01:41AM 31.1038 131.0003 56° Northeast  Level Estimated
01:42AM 31.1827 131.1394 56° Northeast  Level Estimated
01:43AM 31.2615 131.2787 56° Northeast  Level Estimated
01:44AM 31.3402 131.4182 57° Northeast  Level Estimated
01:45AM 31.4187 131.5580 57° Northeast  Level Estimated
01:46AM 31.4970 131.6980 57° Northeast  Level Estimated
01:47AM 31.5752 131.8382 57° Northeast  Level Estimated
01:48AM 31.6532 131.9787 57° Northeast  Level Estimated
01:49AM 31.7311 132.1194 57° Northeast  Level Estimated
01:50AM 31.8089 132.2603 57° Northeast  Level Estimated
01:51AM 31.8864 132.4014 57° Northeast  Level Estimated
01:52AM 31.9639 132.5429 57° Northeast  Level Estimated
01:53AM 32.0411 132.6845 57° Northeast  Level Estimated
01:54AM 32.1183 132.8264 57° Northeast  Level Estimated
01:55AM 32.1952 132.9685 57° Northeast  Level Estimated
01:56AM 32.2720 133.1109 57° Northeast  Level Estimated
01:57AM 32.3486 133.2535 58° Northeast  Level Estimated
01:58AM 32.4251 133.3964 58° Northeast  Level Estimated
01:59AM 32.5014 133.5394 58° Northeast  Level Estimated
02:00AM 32.5775 133.6828 58° Northeast  Level Estimated
02:01AM 32.6535 133.8264 58° Northeast  Level Estimated
02:02AM 32.7294 133.9702 58° Northeast  Level Estimated
02:03AM 32.8050 134.1142 58° Northeast  Level Estimated
02:04AM 32.8805 134.2586 58° Northeast  Level Estimated
02:05AM 32.9558 134.4031 58° Northeast  Level Estimated
02:06AM 33.0310 134.5479 58° Northeast  Level Estimated
02:07AM 33.1060 134.6930 58° Northeast  Level Estimated
02:08AM 33.1808 134.8383 58° Northeast  Level Estimated
02:09AM 33.2554 134.9838 58° Northeast  Level Estimated
02:10AM 33.3299 135.1296 59° Northeast  Level Estimated
02:11AM 33.4042 135.2756 59° Northeast  Level Estimated
02:12AM 33.4784 135.4219 59° Northeast  Level Estimated
02:13AM 33.5523 135.5685 59° Northeast  Level Estimated
02:14AM 33.6261 135.7153 59° Northeast  Level Estimated
02:15AM 33.6997 135.8623 59° Northeast  Level Estimated
02:16AM 33.7732 136.0096 59° Northeast  Level Estimated
02:17AM 33.8465 136.1572 59° Northeast  Level Estimated
02:18AM 33.9196 136.3050 59° Northeast  Level Estimated
02:19AM 33.9925 136.4530 59° Northeast  Level Estimated
02:20AM 34.0652 136.6013 59° Northeast  Level Estimated
02:21AM 34.1378 136.7499 59° Northeast  Level Estimated
02:22AM 34.2102 136.8987 60° Northeast  Level Estimated
02:23AM 34.2824 137.0478 60° Northeast  Level Estimated
02:24AM 34.3544 137.1971 60° Northeast  Level Estimated
02:25AM 34.4262 137.3467 60° Northeast  Level Estimated
02:26AM 34.4979 137.4966 60° Northeast  Level Estimated
02:27AM 34.5694 137.6467 60° Northeast  Level Estimated
02:28AM 34.6407 137.7970 60° Northeast  Level Estimated
02:29AM 34.7118 137.9476 60° Northeast  Level Estimated
02:30AM 34.7827 138.0985 60° Northeast  Level Estimated
02:31AM 34.8534 138.2496 60° Northeast  Level Estimated
02:32AM 34.9240 138.4010 60° Northeast  Level Estimated
02:33AM 34.9943 138.5527 60° Northeast  Level Estimated
02:34AM 35.0645 138.7046 61° Northeast  Level Estimated
02:35AM 35.1345 138.8568 61° Northeast  Level Estimated
02:36AM 35.2043 139.0092 61° Northeast  Level Estimated
02:37AM 35.2739 139.1620 61° Northeast  Level Estimated
02:38AM 35.3433 139.3149 61° Northeast  Level Estimated
02:39AM 35.4125 139.4681 61° Northeast  Level Estimated
02:40AM 35.4815 139.6216 61° Northeast  Level Estimated
02:41AM 35.5503 139.7754 61° Northeast  Level Estimated
02:42AM 35.5523 139.7797 61° Northeast  Level Estimated
02:43AM 35.5523 139.7797 122° Southeast  Level Estimated
02:44AM 35.5523 139.7797 122° Southeast  Level Estimated
02:45AM 35.5523 139.7797 122° Southeast  Level Estimated
02:46AM 35.5523 139.7797 122° Southeast  Level Estimated
02:47AM 35.5523 139.7797 122° Southeast  Level Estimated
02:48AM 35.5523 139.7797 122° Southeast  Level Estimated
02:48AM 35.0489 139.9930 122° Southeast 215 247 1,200  Level FlightAware ADS-B (RJTF)
02:49AM 35.5523 139.7797 122° Southeast  Level Estimated
02:49AM 35.4651 139.8372 343° North 151 174 1,200  Level FlightAware ADS-B (RJTF)
02:51AM 35.5523 139.7797 332° Northwest  Level Estimated
02:52AM 35.5523 139.7797 122° Southeast  Level Estimated
02:53AM 35.5523 139.7797 122° Southeast  Level Estimated